createdAt,value
2022-09-06T00:04:54.576Z,89.91
2022-09-06T00:09:55.215Z,90.03
2022-09-06T00:14:56.121Z,90.01
2022-09-06T00:19:58.085Z,90.58
2022-09-06T00:24:58.652Z,90.92
2022-09-06T00:29:59.274Z,91.24
2022-09-06T00:35:01.209Z,91.01
2022-09-06T00:40:01.912Z,91.46
2022-09-06T00:45:03.052Z,92.11
2022-09-06T00:50:06.487Z,92.33
2022-09-06T00:55:08.098Z,91.50
2022-09-06T01:00:10.539Z,90.88
2022-09-06T01:05:13.971Z,91.00
2022-09-06T01:10:30.781Z,91.31
2022-09-06T01:15:40.965Z,91.40
2022-09-06T01:20:52.862Z,91.11
2022-09-06T01:26:04.994Z,91.98
2022-09-06T01:31:18.471Z,92.44
2022-09-06T01:36:24.996Z,91.80
2022-09-06T01:41:25.755Z,91.62
2022-09-06T01:46:34.458Z,91.86
2022-09-06T01:51:41.500Z,92.72
2022-09-06T01:56:52.789Z,93.50
2022-09-06T02:02:04.636Z,92.86
2022-09-06T02:07:11.538Z,92.64
2022-09-06T02:12:15.297Z,92.37
2022-09-06T02:17:22.122Z,92.65
2022-09-06T02:22:26.036Z,91.76
2022-09-06T02:27:27.082Z,92.24
2022-09-06T02:32:31.482Z,92.68
2022-09-06T02:37:32.086Z,92.92
2022-09-06T02:42:32.763Z,93.29
2022-09-06T02:47:34.699Z,93.62
2022-09-06T02:52:35.402Z,93.70
2022-09-06T02:57:36.033Z,93.61
2022-09-06T03:02:38.088Z,92.12
2022-09-06T03:07:38.742Z,91.45
2022-09-06T03:12:39.387Z,91.61
2022-09-06T03:17:42.179Z,91.97
2022-09-06T03:22:43.093Z,92.08
2022-09-06T03:27:44.838Z,91.96
2022-09-06T03:32:46.766Z,90.78
2022-09-06T03:37:47.400Z,91.44
2022-09-06T03:42:48.040Z,92.13
2022-09-06T03:47:50.017Z,93.01
2022-09-06T03:52:50.622Z,92.63
2022-09-06T03:57:51.222Z,92.93
2022-09-06T04:02:53.140Z,91.53
2022-09-06T04:07:53.798Z,91.98
2022-09-06T04:12:54.452Z,90.74
2022-09-06T04:17:56.401Z,91.14
2022-09-06T04:22:57.042Z,91.33
2022-09-06T04:27:57.703Z,91.23
2022-09-06T04:32:59.655Z,91.01
2022-09-06T04:38:01.691Z,91.41
2022-09-06T04:43:02.307Z,91.31
2022-09-06T04:48:04.407Z,91.35
2022-09-06T04:53:05.070Z,91.01
2022-09-06T04:58:06.466Z,90.91
2022-09-06T05:03:09.866Z,90.59
2022-09-06T05:08:10.557Z,89.65
2022-09-06T05:13:11.198Z,89.14
2022-09-06T05:18:16.168Z,88.63
2022-09-06T05:23:16.956Z,87.91
2022-09-06T05:28:18.146Z,87.61
2022-09-06T05:33:23.710Z,86.44
2022-09-06T05:38:28.126Z,84.92
2022-09-06T05:43:30.247Z,83.00
2022-09-06T05:48:36.590Z,80.66
2022-09-06T05:53:38.898Z,79.90
2022-09-06T05:58:39.828Z,78.66
2022-09-06T06:03:41.820Z,76.76
2022-09-06T06:08:42.508Z,76.14
2022-09-06T06:13:43.739Z,74.83
2022-09-06T06:18:49.987Z,74.46
2022-09-06T06:23:54.667Z,73.54
2022-09-06T06:28:55.638Z,72.67
2022-09-06T06:33:58.285Z,71.54
2022-09-06T06:38:59.670Z,70.74
2022-09-06T06:44:03.007Z,69.91
2022-09-06T06:49:05.318Z,68.31
2022-09-06T06:54:06.612Z,67.27
2022-09-06T06:59:08.746Z,67.76
2022-09-06T07:04:12.243Z,67.13
2022-09-06T07:09:12.841Z,66.21
2022-09-06T07:14:13.477Z,65.75
2022-09-06T07:24:36.194Z,65.14
2022-09-06T07:29:36.857Z,64.51
2022-09-06T07:34:39.707Z,63.83
2022-09-06T07:39:41.350Z,63.74
2022-09-06T07:44:42.076Z,63.70
2022-09-06T07:55:05.300Z,63.67
2022-09-06T08:00:06.549Z,64.28
2022-09-06T08:10:34.295Z,64.31
2022-09-06T08:15:35.336Z,63.32
2022-09-06T08:20:37.337Z,62.21
2022-09-06T08:25:38.075Z,61.62
2022-09-06T08:30:38.732Z,60.57
2022-09-06T08:35:40.690Z,59.92
2022-09-06T08:40:41.355Z,59.26
2022-09-06T08:45:42.769Z,58.43
2022-09-06T08:50:57.206Z,56.93
2022-09-06T08:56:06.115Z,56.44
2022-09-06T09:01:11.402Z,55.16
2022-09-06T09:06:13.469Z,54.64
2022-09-06T09:11:18.154Z,53.71
2022-09-06T09:16:20.054Z,53.05
2022-09-06T09:21:29.615Z,54.10
2022-09-06T09:26:37.400Z,53.65
2022-09-06T09:31:40.239Z,53.88
2022-09-06T09:42:04.052Z,53.78
2022-09-06T09:47:22.849Z,53.83
2022-09-06T09:52:29.209Z,53.15
2022-09-06T09:57:32.197Z,53.26
2022-09-06T10:02:39.015Z,52.46
2022-09-06T10:07:46.948Z,51.30
2022-09-06T10:12:47.572Z,51.78
2022-09-06T10:17:51.224Z,49.56
2022-09-06T10:23:02.677Z,50.30
2022-09-06T10:28:21.533Z,49.48
2022-09-06T10:33:32.262Z,51.35
2022-09-06T10:38:49.305Z,51.76
2022-09-06T10:43:58.865Z,51.40
2022-09-06T10:48:59.910Z,49.98
2022-09-06T10:54:09.211Z,49.78
2022-09-06T11:10:07.838Z,49.95
2022-09-06T11:15:11.539Z,49.71
2022-09-06T11:20:18.078Z,50.68
2022-09-06T11:26:02.227Z,51.33
2022-09-06T11:31:04.852Z,50.67
2022-09-06T11:36:21.133Z,51.35
2022-09-06T11:41:27.629Z,51.82
2022-09-06T11:47:02.594Z,50.69
2022-09-06T11:52:04.175Z,50.80
2022-09-06T11:57:16.069Z,51.04
2022-09-06T12:02:36.387Z,50.03
2022-09-06T12:07:38.320Z,49.37
2022-09-06T12:12:46.738Z,47.27
2022-09-06T12:17:47.921Z,46.52
2022-09-06T12:22:57.688Z,45.55
2022-09-06T12:28:02.486Z,46.04
2022-09-06T12:33:06.289Z,46.27
2022-09-06T12:38:09.383Z,45.91
2022-09-06T12:43:14.568Z,46.26
2022-09-06T12:48:27.986Z,46.14
2022-09-06T12:53:28.743Z,46.19
2022-09-06T12:58:31.088Z,46.78
2022-09-06T13:03:36.350Z,48.05
2022-09-06T13:08:44.589Z,47.92
2022-09-06T13:13:52.651Z,49.68
2022-09-06T13:18:54.122Z,50.64
2022-09-06T13:23:55.031Z,51.70
2022-09-06T13:28:58.034Z,53.08
2022-09-06T13:34:00.491Z,53.99
2022-09-06T13:39:03.803Z,54.21
2022-09-06T13:44:07.990Z,57.12
2022-09-06T13:49:08.941Z,62.84
2022-09-06T13:54:12.384Z,70.35
2022-09-06T13:59:14.466Z,77.75
2022-09-06T14:04:19.236Z,86.32
2022-09-06T14:09:19.956Z,90.04
2022-09-06T14:14:21.984Z,94.09
2022-09-06T14:19:23.233Z,96.26
2022-09-06T14:24:24.102Z,98.31
2022-09-06T14:29:26.114Z,99.51
2022-09-06T14:34:27.698Z,99.88
2022-09-06T14:39:28.516Z,100.00
2022-09-06T14:44:30.582Z,100.00
2022-09-06T14:49:31.224Z,100.00
2022-09-06T14:54:31.939Z,100.00
2022-09-06T14:59:34.310Z,100.00
2022-09-06T15:04:35.066Z,100.00
2022-09-06T15:09:35.691Z,100.00
2022-09-06T15:14:37.939Z,100.00
2022-09-06T15:19:38.746Z,99.64
2022-09-06T15:24:40.464Z,100.00
2022-09-06T15:29:42.533Z,99.69
2022-09-06T15:34:43.163Z,98.49
2022-09-06T15:39:43.828Z,98.63
2022-09-06T15:44:45.787Z,99.71
2022-09-06T15:49:46.413Z,100.00
2022-09-06T15:55:04.550Z,100.00
2022-09-06T16:00:07.367Z,100.00
2022-09-06T16:05:08.593Z,100.00
2022-09-06T16:10:11.538Z,100.00
2022-09-06T16:15:13.692Z,100.00
2022-09-06T16:20:14.567Z,100.00
2022-09-06T16:25:15.208Z,100.00
2022-09-06T16:30:17.439Z,100.00
2022-09-06T16:35:18.823Z,100.00
2022-09-06T16:40:19.528Z,100.00
2022-09-06T16:45:21.548Z,100.00
2022-09-06T16:50:22.337Z,100.00
2022-09-06T16:55:23.137Z,100.00
2022-09-06T17:00:25.157Z,100.00
2022-09-06T17:05:25.767Z,96.21
2022-09-06T17:10:26.609Z,96.32
2022-09-06T17:15:48.649Z,98.90
2022-09-06T17:20:56.147Z,100.00
2022-09-06T17:25:56.778Z,100.00
2022-09-06T17:31:01.186Z,100.00
2022-09-06T17:36:10.369Z,100.00
2022-09-06T17:41:20.787Z,100.00
2022-09-06T17:46:28.471Z,100.00
2022-09-06T17:51:29.524Z,100.00
2022-09-06T17:56:30.526Z,100.00
2022-09-06T18:01:36.192Z,100.00
2022-09-06T18:06:39.976Z,100.00
2022-09-06T18:11:41.250Z,100.00
2022-09-06T18:16:45.258Z,100.00
2022-09-06T18:21:46.986Z,100.00
2022-09-06T18:26:47.611Z,100.00
2022-09-06T18:31:51.356Z,100.00
2022-09-06T18:36:52.396Z,100.00
2022-09-06T18:42:02.794Z,100.00
2022-09-06T18:47:06.882Z,100.00
2022-09-06T18:52:08.098Z,100.00
2022-09-06T18:57:09.130Z,100.00
2022-09-06T19:02:11.380Z,100.00
2022-09-06T19:07:12.068Z,100.00
2022-09-06T19:12:12.679Z,100.00
2022-09-06T19:17:14.682Z,100.00
2022-09-06T19:22:15.521Z,100.00
2022-09-06T19:27:16.212Z,100.00
2022-09-06T19:32:19.225Z,100.00
2022-09-06T19:37:23.704Z,100.00
2022-09-06T19:42:24.350Z,100.00
2022-09-06T19:47:26.317Z,100.00
2022-09-06T19:52:27.024Z,100.00
2022-09-06T19:57:27.698Z,100.00
2022-09-06T20:02:29.738Z,100.00
2022-09-06T20:07:30.477Z,100.00
2022-09-06T20:12:32.324Z,100.00
2022-09-06T20:17:34.994Z,100.00
2022-09-06T20:22:35.711Z,100.00
2022-09-06T20:27:36.346Z,100.00
2022-09-06T20:32:38.313Z,100.00
2022-09-06T20:37:38.959Z,100.00
2022-09-06T20:42:42.208Z,100.00
2022-09-06T20:47:44.227Z,100.00
2022-09-06T20:52:45.436Z,100.00
2022-09-06T20:57:47.708Z,100.00
2022-09-06T21:02:49.673Z,100.00
2022-09-06T21:07:50.336Z,100.00
2022-09-06T21:12:51.142Z,100.00
2022-09-06T21:17:53.202Z,100.00
2022-09-06T21:22:53.815Z,100.00
2022-09-06T21:27:55.928Z,100.00
2022-09-06T21:32:57.953Z,100.00
2022-09-06T21:37:58.575Z,100.00
2022-09-06T21:42:59.182Z,100.00
2022-09-06T21:48:01.139Z,100.00
2022-09-06T21:53:01.743Z,100.00
2022-09-06T21:58:02.346Z,100.00
2022-09-06T22:03:04.605Z,100.00
2022-09-06T22:08:05.281Z,100.00
2022-09-06T22:13:05.922Z,100.00
2022-09-06T22:18:08.613Z,100.00
2022-09-06T22:23:10.378Z,100.00
2022-09-06T22:28:10.975Z,100.00
2022-09-06T22:33:12.922Z,100.00
2022-09-06T22:38:13.562Z,100.00
2022-09-06T22:43:15.287Z,100.00
2022-09-06T22:48:17.427Z,100.00
2022-09-06T22:53:19.024Z,100.00
2022-09-06T22:58:19.664Z,100.00
2022-09-06T23:03:22.022Z,100.00
2022-09-06T23:08:22.688Z,100.00
2022-09-06T23:13:23.321Z,100.00
2022-09-06T23:18:25.361Z,100.00
2022-09-06T23:23:25.977Z,100.00
2022-09-06T23:28:26.579Z,100.00
2022-09-06T23:33:29.104Z,100.00
2022-09-06T23:38:29.801Z,100.00
2022-09-06T23:43:30.985Z,100.00
2022-09-06T23:48:33.118Z,100.00
2022-09-06T23:53:34.282Z,100.00
2022-09-06T23:58:34.955Z,100.00
